YHK weather

Gjoa Haven Airport
Gjoa Haven, Nunavut, Canada

Public forecast

Using degrees Celsius for public forecast. Weather courtesy of forecast.io.

Current aviation weather report (METAR) for Gjoa Haven Airport

Retrieved 2020/08/05 12:00 UTC (31 minutes ago):

CYHK 051200Z 06020KT 15SM FEW025 BKN041 08/07 A2962 RMK SC2SC5 SLP035

Aviation forecast (TAF) for Gjoa Haven Airport

Retrieved 2020/08/05 12:42 UTC (0 seconds ago):

TAF CYHK 051138Z 0512/0524 06020G30KT P6SM OVC030 TEMPO 0512/0515 3SM -RA BR OVC012 FM051500 05020G30KT P6SM SCT015 BKN040 TEMPO 0515/0518 BKN015 BKN040 FM051800 05022G32KT P6SM FEW015 SCT040 RMK FCST BASED ON AUTO OBS NXT FCST BY 051800Z